createdAt,value
2019-03-13T05:01:00.592Z,0.00
2019-03-13T05:02:00.463Z,0.00
2019-03-13T05:03:53.148Z,0.00
2019-03-13T05:04:53.007Z,0.00
2019-03-13T05:06:45.682Z,0.00
2019-03-13T05:07:45.564Z,0.00
2019-03-13T05:09:38.241Z,0.00
2019-03-13T05:10:38.111Z,0.00
2019-03-13T05:12:30.787Z,0.00
2019-03-13T05:13:30.667Z,0.00
2019-03-13T05:15:23.346Z,0.00
2019-03-13T05:16:23.215Z,0.00
2019-03-13T05:18:15.876Z,0.00
2019-03-13T05:19:15.768Z,0.00
2019-03-13T05:21:08.449Z,0.00
2019-03-13T05:22:08.313Z,0.00
2019-03-13T05:24:00.969Z,4.00
2019-03-13T05:25:00.859Z,4.00
2019-03-13T05:26:53.532Z,0.00
2019-03-13T05:27:53.401Z,4.00
2019-03-13T05:29:46.067Z,4.00
2019-03-13T05:30:45.956Z,4.00
2019-03-13T05:32:38.632Z,4.00
2019-03-13T05:33:38.510Z,8.00
2019-03-13T05:35:31.163Z,8.00
2019-03-13T05:36:31.054Z,12.00
2019-03-13T05:38:23.738Z,12.00
2019-03-13T05:39:23.591Z,12.00
2019-03-13T05:41:16.254Z,20.00
2019-03-13T05:42:16.147Z,20.00
2019-03-13T05:44:08.836Z,32.00
2019-03-13T05:45:08.705Z,28.00
2019-03-13T05:47:01.351Z,44.00
2019-03-13T05:48:01.238Z,60.00
2019-03-13T05:49:53.918Z,48.00
2019-03-13T05:50:53.778Z,52.00
2019-03-13T05:52:46.446Z,56.00
2019-03-13T05:53:46.334Z,68.00
2019-03-13T05:55:39.007Z,56.00
2019-03-13T05:56:40.772Z,88.00
2019-03-13T05:58:31.541Z,84.00
2019-03-13T05:59:31.427Z,84.00
2019-03-13T06:01:24.102Z,112.00
2019-03-13T06:02:23.971Z,116.00
2019-03-13T06:04:16.631Z,156.00
2019-03-13T06:05:16.517Z,120.00
2019-03-13T06:07:09.215Z,116.00
2019-03-13T06:08:09.062Z,156.00
2019-03-13T06:10:01.722Z,152.00
2019-03-13T06:11:01.609Z,212.00
2019-03-13T06:12:54.292Z,256.00
2019-03-13T06:15:08.356Z,232.00
2019-03-13T06:16:07.880Z,252.00
2019-03-13T06:18:00.408Z,368.00
2019-03-13T06:19:00.276Z,400.00
2019-03-13T06:20:52.949Z,488.00
2019-03-13T06:21:52.837Z,508.00
2019-03-13T06:23:47.859Z,596.00
2019-03-13T06:24:45.386Z,552.00
2019-03-13T06:26:38.074Z,628.00
2019-03-13T06:27:37.930Z,796.00
2019-03-13T06:29:31.890Z,768.00
2019-03-13T06:30:30.562Z,824.00
2019-03-13T06:32:23.211Z,464.00
2019-03-13T06:33:23.025Z,408.00
2019-03-13T06:35:15.691Z,460.00
2019-03-13T06:36:15.583Z,532.00
2019-03-13T06:38:08.254Z,636.00
2019-03-13T06:39:08.124Z,808.00
2019-03-13T06:41:00.780Z,732.00
2019-03-13T06:42:00.675Z,848.00
2019-03-13T06:43:53.343Z,1048.00
2019-03-13T06:44:53.212Z,1432.00
2019-03-13T06:46:45.873Z,1420.00
2019-03-13T06:47:45.849Z,1200.00
2019-03-13T06:49:38.435Z,992.00
2019-03-13T06:50:38.301Z,896.00
2019-03-13T06:52:31.801Z,800.00
2019-03-13T06:53:30.850Z,568.00
2019-03-13T06:55:23.525Z,728.00
2019-03-13T06:56:23.393Z,992.00
2019-03-13T06:58:16.083Z,1180.00
2019-03-13T06:59:15.938Z,844.00
2019-03-13T07:01:08.621Z,568.00
2019-03-13T07:02:08.488Z,588.00
2019-03-13T07:04:01.181Z,1192.00
2019-03-13T07:05:01.044Z,1360.00
2019-03-13T07:06:53.712Z,1112.00
2019-03-13T07:07:53.600Z,720.00
2019-03-13T07:09:46.284Z,820.00
2019-03-13T07:10:46.154Z,972.00
2019-03-13T07:12:38.822Z,852.00
2019-03-13T07:13:38.709Z,1136.00
2019-03-13T07:15:31.411Z,868.00
2019-03-13T07:16:31.261Z,1096.00
2019-03-13T07:18:23.919Z,1356.00
2019-03-13T07:19:23.804Z,1432.00
2019-03-13T07:21:16.502Z,1436.00
2019-03-13T07:22:16.357Z,1704.00
2019-03-13T07:24:09.022Z,1560.00
2019-03-13T07:25:08.930Z,2032.00
2019-03-13T07:27:01.594Z,1968.00
2019-03-13T07:28:01.455Z,1912.00
2019-03-13T07:29:54.118Z,1604.00
2019-03-13T07:30:53.996Z,1760.00
2019-03-13T07:32:46.674Z,1336.00
2019-03-13T07:33:46.545Z,1416.00
2019-03-13T07:35:39.215Z,2120.00
2019-03-13T07:36:39.102Z,1872.00
2019-03-13T07:38:31.772Z,1692.00
2019-03-13T07:39:31.640Z,1960.00
2019-03-13T07:41:24.307Z,2904.00
2019-03-13T07:42:24.187Z,2880.00
2019-03-13T07:44:16.893Z,2440.00
2019-03-13T07:45:16.770Z,2952.00
2019-03-13T07:47:09.435Z,3940.00
2019-03-13T07:48:09.315Z,4336.00
2019-03-13T07:50:02.006Z,4592.00
2019-03-13T07:51:01.867Z,4164.00
2019-03-13T07:52:54.538Z,3252.00
2019-03-13T07:53:54.421Z,3288.00
2019-03-13T07:55:47.103Z,4264.00
2019-03-13T07:56:46.967Z,3696.00
2019-03-13T07:58:39.636Z,3792.00
2019-03-13T07:59:39.524Z,3844.00
2019-03-13T08:01:32.244Z,3248.00
2019-03-13T08:02:32.084Z,2572.00
2019-03-13T08:04:24.750Z,3956.00
2019-03-13T08:05:24.632Z,4784.00
2019-03-13T08:07:17.314Z,4596.00
2019-03-13T08:08:17.186Z,4408.00
2019-03-13T08:10:09.854Z,2860.00
2019-03-13T08:11:09.730Z,2932.00
2019-03-13T08:13:02.412Z,3172.00
2019-03-13T08:14:02.281Z,3168.00
2019-03-13T08:15:54.950Z,3984.00
2019-03-13T08:16:54.836Z,4248.00
2019-03-13T08:18:48.516Z,5836.00
2019-03-13T08:19:48.383Z,6992.00
2019-03-13T08:21:41.063Z,8540.00
2019-03-13T08:22:40.936Z,8784.00
2019-03-13T08:24:33.618Z,9076.00
2019-03-13T08:25:33.495Z,9016.00
2019-03-13T08:27:26.160Z,6928.00
2019-03-13T08:28:26.050Z,6612.00
2019-03-13T08:30:20.388Z,5912.00
2019-03-13T08:31:18.604Z,7108.00
2019-03-13T08:33:11.271Z,5552.00
2019-03-13T08:34:11.157Z,5288.00
2019-03-13T08:36:03.859Z,5676.00
2019-03-13T08:37:03.736Z,6472.00
2019-03-13T08:38:56.399Z,6008.00
2019-03-13T08:39:56.287Z,5184.00
2019-03-13T08:41:48.967Z,4168.00
2019-03-13T08:42:48.873Z,3916.00
2019-03-13T08:44:41.500Z,3236.00
2019-03-13T08:45:41.394Z,4456.00
2019-03-13T08:47:34.071Z,3224.00
2019-03-13T08:48:33.942Z,2824.00
2019-03-13T08:50:26.614Z,2560.00
2019-03-13T08:51:26.491Z,2364.00
2019-03-13T08:53:19.149Z,2792.00
2019-03-13T08:54:19.046Z,3940.00
2019-03-13T08:56:11.728Z,4284.00
2019-03-13T08:57:11.599Z,3732.00
2019-03-13T08:59:04.259Z,2584.00
2019-03-13T09:00:04.151Z,2628.00
2019-03-13T09:01:56.839Z,2844.00
2019-03-13T09:02:56.695Z,2536.00
2019-03-13T09:04:49.368Z,3020.00
2019-03-13T09:05:49.246Z,2608.00
2019-03-13T09:07:41.968Z,3064.00
2019-03-13T09:08:41.799Z,3824.00
2019-03-13T09:10:34.481Z,4184.00
2019-03-13T09:11:34.355Z,5232.00
2019-03-13T09:13:27.037Z,4260.00
2019-03-13T09:14:26.903Z,5572.00
2019-03-13T09:16:20.001Z,5464.00
2019-03-13T09:17:19.454Z,4012.00
2019-03-13T09:19:12.140Z,6008.00
2019-03-13T09:20:12.012Z,4248.00
2019-03-13T09:22:04.668Z,5212.00
2019-03-13T09:23:04.565Z,4312.00
2019-03-13T09:25:10.735Z,4072.00
2019-03-13T09:25:57.100Z,4796.00
2019-03-13T09:27:49.760Z,8008.00
2019-03-13T09:28:49.661Z,8580.00
2019-03-13T09:30:42.331Z,7928.00
2019-03-13T09:31:42.208Z,7868.00
2019-03-13T09:33:34.872Z,6784.00
2019-03-13T09:34:34.755Z,7696.00
2019-03-13T09:36:27.445Z,5748.00
2019-03-13T09:37:27.314Z,5488.00
2019-03-13T09:39:19.980Z,7964.00
2019-03-13T09:40:19.872Z,9716.00
2019-03-13T09:42:13.054Z,7116.00
2019-03-13T09:43:12.924Z,7056.00
2019-03-13T09:45:05.595Z,6968.00
2019-03-13T09:46:05.484Z,6228.00
2019-03-13T09:47:58.170Z,6768.00
2019-03-13T09:48:58.036Z,7784.00
2019-03-13T09:50:50.702Z,6884.00
2019-03-13T09:51:50.593Z,4756.00
2019-03-13T09:53:43.290Z,3616.00
2019-03-13T09:54:43.153Z,3008.00
2019-03-13T09:56:35.848Z,4756.00
2019-03-13T09:57:35.709Z,5592.00
2019-03-13T09:59:28.385Z,6264.00
2019-03-13T10:00:28.276Z,4348.00
2019-03-13T10:02:20.952Z,4680.00
2019-03-13T10:03:20.824Z,4684.00
2019-03-13T10:05:13.495Z,5336.00
2019-03-13T10:06:13.374Z,3756.00
2019-03-13T10:08:06.059Z,4956.00
2019-03-13T10:09:05.930Z,4548.00
2019-03-13T10:10:58.596Z,4868.00
2019-03-13T10:11:58.489Z,4796.00
2019-03-13T10:13:51.198Z,4028.00
2019-03-13T10:14:51.042Z,4064.00
2019-03-13T10:16:43.703Z,2748.00
2019-03-13T10:17:43.596Z,2404.00
2019-03-13T10:19:36.272Z,2428.00
2019-03-13T10:20:36.144Z,2560.00
2019-03-13T10:22:28.848Z,3048.00
2019-03-13T10:23:28.708Z,3208.00
2019-03-13T10:25:21.372Z,4928.00
2019-03-13T10:26:21.241Z,5468.00
2019-03-13T10:28:13.909Z,4964.00
2019-03-13T10:29:13.789Z,6556.00
2019-03-13T10:31:06.472Z,5828.00
2019-03-13T10:32:06.342Z,5372.00
2019-03-13T10:33:59.007Z,4004.00
2019-03-13T10:34:58.897Z,3464.00
2019-03-13T10:36:51.582Z,4888.00
2019-03-13T10:37:51.449Z,4132.00
2019-03-13T10:39:44.177Z,4592.00
2019-03-13T10:40:44.034Z,4680.00
2019-03-13T10:42:36.698Z,5148.00
2019-03-13T10:43:36.630Z,4284.00
2019-03-13T10:45:29.262Z,3432.00
2019-03-13T10:46:29.139Z,3196.00
2019-03-13T10:48:21.816Z,3560.00
2019-03-13T10:49:21.693Z,6156.00
2019-03-13T10:51:14.371Z,7664.00
2019-03-13T10:52:14.242Z,6076.00
2019-03-13T10:54:06.914Z,6208.00
2019-03-13T10:55:06.800Z,5256.00
2019-03-13T10:56:59.480Z,5144.00
2019-03-13T10:57:59.373Z,6248.00
2019-03-13T10:59:52.023Z,4072.00
2019-03-13T11:00:51.905Z,3544.00
2019-03-13T11:02:44.594Z,6408.00
2019-03-13T11:03:44.461Z,10052.00
2019-03-13T11:05:37.118Z,7512.00
2019-03-13T11:06:37.013Z,5952.00
2019-03-13T11:08:29.696Z,5300.00
2019-03-13T11:09:29.563Z,5528.00
2019-03-13T11:11:22.228Z,3080.00
2019-03-13T11:12:22.120Z,3288.00
2019-03-13T11:14:16.142Z,3988.00
2019-03-13T11:15:14.676Z,4292.00
2019-03-13T11:17:07.366Z,7644.00
2019-03-13T11:18:07.233Z,5188.00
2019-03-13T11:19:59.890Z,4160.00
2019-03-13T11:20:59.779Z,3532.00
2019-03-13T11:22:52.457Z,5052.00
2019-03-13T11:23:52.423Z,4752.00
2019-03-13T11:25:44.997Z,6096.00
2019-03-13T11:26:44.889Z,4836.00
2019-03-13T11:28:37.586Z,6536.00
2019-03-13T11:29:37.457Z,9180.00
2019-03-13T11:31:30.110Z,9628.00
2019-03-13T11:32:29.993Z,8276.00
2019-03-13T11:34:22.680Z,5564.00
2019-03-13T11:35:22.542Z,5460.00
2019-03-13T11:37:15.211Z,4836.00
2019-03-13T11:38:15.142Z,4288.00
2019-03-13T11:40:07.779Z,6236.00
2019-03-13T11:41:07.661Z,6568.00
2019-03-13T11:43:00.319Z,7124.00
2019-03-13T11:44:00.205Z,6776.00
2019-03-13T11:45:52.892Z,7136.00
2019-03-13T11:46:52.761Z,5680.00
2019-03-13T11:48:45.437Z,3852.00
2019-03-13T11:49:45.318Z,3848.00
2019-03-13T11:51:38.019Z,4572.00
2019-03-13T11:52:37.884Z,5052.00
2019-03-13T11:54:30.548Z,4328.00
2019-03-13T11:55:30.452Z,5532.00
2019-03-13T11:57:23.125Z,7456.00
2019-03-13T11:58:23.014Z,6632.00
2019-03-13T12:00:15.664Z,6188.00
2019-03-13T12:01:17.450Z,6168.00
2019-03-13T12:03:08.235Z,6592.00
2019-03-13T12:04:08.109Z,5472.00
2019-03-13T12:06:00.789Z,4668.00
2019-03-13T12:07:00.674Z,3644.00
2019-03-13T12:08:53.366Z,3320.00
2019-03-13T12:09:53.237Z,3356.00
2019-03-13T12:11:45.912Z,4020.00
2019-03-13T12:12:46.076Z,3440.00
2019-03-13T12:14:38.479Z,4336.00
2019-03-13T12:15:38.348Z,4400.00
2019-03-13T12:17:31.014Z,4528.00
2019-03-13T12:18:30.895Z,3108.00
2019-03-13T12:20:23.580Z,3620.00
2019-03-13T12:21:23.449Z,3532.00
2019-03-13T12:23:16.116Z,2968.00
2019-03-13T12:24:16.002Z,2904.00
2019-03-13T12:26:08.680Z,2996.00
2019-03-13T12:27:08.555Z,2660.00
2019-03-13T12:29:01.225Z,4064.00
2019-03-13T12:30:01.113Z,3944.00
2019-03-13T12:31:53.807Z,3448.00
2019-03-13T12:32:53.674Z,3072.00
2019-03-13T12:34:46.346Z,2248.00
2019-03-13T12:35:46.227Z,3160.00
2019-03-13T12:37:38.924Z,2348.00
2019-03-13T12:38:38.796Z,2304.00
2019-03-13T12:40:31.452Z,2904.00
2019-03-13T12:41:31.336Z,2504.00
2019-03-13T12:43:24.030Z,3352.00
2019-03-13T12:44:23.897Z,3660.00
2019-03-13T12:46:16.563Z,3716.00
2019-03-13T12:47:16.449Z,3588.00
2019-03-13T12:49:09.128Z,3448.00
2019-03-13T12:50:09.002Z,4060.00
2019-03-13T12:52:01.657Z,3552.00
2019-03-13T12:53:01.552Z,2772.00
2019-03-13T12:54:54.227Z,3816.00
2019-03-13T12:55:54.092Z,2980.00
2019-03-13T12:57:46.752Z,3180.00
2019-03-13T12:58:46.642Z,3084.00
2019-03-13T13:00:39.321Z,3032.00
2019-03-13T13:01:39.187Z,3172.00
2019-03-13T13:03:31.854Z,2312.00
2019-03-13T13:04:31.735Z,2040.00
2019-03-13T13:06:24.421Z,2776.00
2019-03-13T13:07:24.281Z,2688.00
2019-03-13T13:09:16.949Z,1860.00
2019-03-13T13:10:16.843Z,2440.00
2019-03-13T13:12:09.528Z,2496.00
2019-03-13T13:13:09.398Z,2596.00
2019-03-13T13:15:03.080Z,2520.00
2019-03-13T13:16:02.950Z,2204.00
2019-03-13T13:17:55.608Z,2300.00
2019-03-13T13:18:55.491Z,2768.00
2019-03-13T13:20:48.157Z,1576.00
2019-03-13T13:21:48.031Z,1388.00
2019-03-13T13:23:40.694Z,1516.00
2019-03-13T13:24:40.577Z,2028.00
2019-03-13T13:26:33.269Z,2100.00
2019-03-13T13:27:33.129Z,2416.00
2019-03-13T13:29:25.796Z,3468.00
2019-03-13T13:30:25.685Z,2828.00
2019-03-13T13:32:18.361Z,1572.00
2019-03-13T13:33:18.230Z,1268.00
2019-03-13T13:35:10.897Z,776.00
2019-03-13T13:36:10.783Z,800.00
2019-03-13T13:38:03.476Z,716.00
2019-03-13T13:39:03.337Z,728.00
2019-03-13T13:40:56.005Z,740.00
2019-03-13T13:41:55.893Z,780.00
2019-03-13T13:43:48.726Z,932.00
2019-03-13T13:44:48.442Z,1260.00
2019-03-13T13:46:44.210Z,1816.00
2019-03-13T13:47:40.997Z,1648.00
2019-03-13T13:49:33.671Z,1968.00
2019-03-13T13:50:33.553Z,2092.00
2019-03-13T13:52:26.204Z,1388.00
2019-03-13T13:53:26.100Z,1284.00
2019-03-13T13:55:18.776Z,1104.00
2019-03-13T13:56:18.668Z,952.00
2019-03-13T13:58:11.305Z,1168.00
2019-03-13T13:59:11.194Z,1168.00
2019-03-13T14:01:03.885Z,1052.00
2019-03-13T14:02:03.742Z,980.00
2019-03-13T14:03:56.408Z,908.00
2019-03-13T14:04:56.295Z,852.00
2019-03-13T14:06:48.978Z,932.00
2019-03-13T14:07:48.842Z,1224.00
2019-03-13T14:09:41.502Z,1508.00
2019-03-13T14:10:41.387Z,1548.00
2019-03-13T14:12:34.064Z,1136.00
2019-03-13T14:13:33.936Z,1292.00
2019-03-13T14:15:26.613Z,1656.00
2019-03-13T14:16:26.491Z,1608.00
2019-03-13T14:18:19.158Z,1532.00
2019-03-13T14:19:19.021Z,1640.00
2019-03-13T14:21:12.686Z,2340.00
2019-03-13T14:22:12.606Z,2668.00
2019-03-13T14:24:05.253Z,2224.00
2019-03-13T14:25:05.194Z,2344.00
2019-03-13T14:26:57.795Z,2908.00
2019-03-13T14:27:57.688Z,2628.00
2019-03-13T14:29:50.393Z,1828.00
2019-03-13T14:30:50.260Z,1472.00
2019-03-13T14:32:42.941Z,1792.00
2019-03-13T14:33:42.815Z,2560.00
2019-03-13T14:35:35.496Z,1416.00
2019-03-13T14:36:35.364Z,3420.00
2019-03-13T14:38:28.026Z,3636.00
2019-03-13T14:39:27.958Z,4172.00
2019-03-13T14:41:20.602Z,5564.00
2019-03-13T14:42:20.476Z,4748.00
2019-03-13T14:44:13.140Z,5032.00
2019-03-13T14:45:13.023Z,6004.00
2019-03-13T14:47:05.758Z,5704.00
2019-03-13T14:48:05.650Z,5572.00
2019-03-13T14:49:58.233Z,4804.00
2019-03-13T14:50:58.140Z,5136.00
2019-03-13T14:52:50.791Z,5772.00
2019-03-13T14:53:50.668Z,6252.00
2019-03-13T14:55:43.358Z,6248.00
2019-03-13T14:56:43.225Z,5472.00
2019-03-13T14:58:35.889Z,5704.00
2019-03-13T14:59:35.774Z,6396.00
2019-03-13T15:01:28.478Z,5928.00
2019-03-13T15:02:28.330Z,7060.00
2019-03-13T15:04:21.122Z,5452.00
2019-03-13T15:05:21.016Z,4704.00
2019-03-13T15:07:13.700Z,2644.00
2019-03-13T15:08:13.568Z,2892.00
2019-03-13T15:10:06.233Z,3532.00
2019-03-13T15:11:06.110Z,3472.00
2019-03-13T15:12:58.791Z,4532.00
2019-03-13T15:13:58.737Z,5428.00
2019-03-13T15:15:51.335Z,3612.00
2019-03-13T15:16:53.288Z,4592.00
2019-03-13T15:18:43.905Z,4132.00
2019-03-13T15:19:43.775Z,3624.00
2019-03-13T15:21:36.464Z,2388.00
2019-03-13T15:22:36.399Z,2368.00
2019-03-13T15:24:29.004Z,2424.00
2019-03-13T15:25:28.929Z,2116.00
2019-03-13T15:27:21.543Z,880.00
2019-03-13T15:28:21.438Z,900.00
2019-03-13T15:30:14.113Z,1144.00
2019-03-13T15:31:13.978Z,836.00
2019-03-13T15:33:06.650Z,696.00
2019-03-13T15:34:06.529Z,632.00
2019-03-13T15:35:59.234Z,1024.00
2019-03-13T15:36:59.085Z,1048.00
2019-03-13T15:38:51.756Z,1152.00
2019-03-13T15:39:51.632Z,1336.00
2019-03-13T15:41:44.318Z,2416.00
2019-03-13T15:42:44.191Z,3444.00
2019-03-13T15:44:36.859Z,3136.00
2019-03-13T15:45:36.747Z,2912.00
2019-03-13T15:47:29.441Z,2160.00
2019-03-13T15:48:29.297Z,2316.00
2019-03-13T15:50:21.990Z,2484.00
2019-03-13T15:51:21.870Z,1916.00
2019-03-13T15:53:14.550Z,1152.00
2019-03-13T15:54:14.427Z,1352.00
2019-03-13T15:56:07.087Z,1656.00
2019-03-13T15:57:06.974Z,1796.00
2019-03-13T15:58:59.657Z,1636.00
2019-03-13T15:59:59.530Z,1520.00
2019-03-13T16:01:52.204Z,1152.00
2019-03-13T16:02:55.224Z,1232.00
2019-03-13T16:04:44.770Z,672.00
2019-03-13T16:05:44.629Z,440.00
2019-03-13T16:07:37.295Z,444.00
2019-03-13T16:08:37.178Z,520.00
2019-03-13T16:10:29.867Z,744.00
2019-03-13T16:11:29.727Z,816.00
2019-03-13T16:13:22.380Z,1736.00
2019-03-13T16:14:22.280Z,1776.00
2019-03-13T16:16:14.961Z,2104.00
2019-03-13T16:17:14.826Z,2188.00
2019-03-13T16:19:07.525Z,2212.00
2019-03-13T16:20:07.410Z,2184.00
2019-03-13T16:22:00.083Z,1752.00
2019-03-13T16:23:00.040Z,1412.00
2019-03-13T16:24:52.628Z,1176.00
2019-03-13T16:25:52.513Z,1688.00
2019-03-13T16:27:45.193Z,2060.00
2019-03-13T16:28:45.068Z,2152.00
2019-03-13T16:30:37.729Z,2356.00
2019-03-13T16:31:37.692Z,2448.00
2019-03-13T16:33:30.300Z,2280.00
2019-03-13T16:34:30.160Z,2260.00
2019-03-13T16:36:22.833Z,1992.00
2019-03-13T16:37:22.716Z,1760.00
2019-03-13T16:39:15.400Z,1688.00
2019-03-13T16:40:15.276Z,1608.00
2019-03-13T16:42:07.940Z,1304.00
2019-03-13T16:43:07.827Z,1456.00
2019-03-13T16:45:00.523Z,1552.00
2019-03-13T16:46:00.396Z,1500.00
2019-03-13T16:47:53.054Z,1388.00
2019-03-13T16:48:52.946Z,1284.00
2019-03-13T16:50:45.628Z,1104.00
2019-03-13T16:51:45.489Z,872.00
2019-03-13T16:53:38.145Z,888.00
2019-03-13T16:54:38.032Z,988.00
2019-03-13T16:56:30.717Z,936.00
2019-03-13T16:57:30.583Z,876.00
2019-03-13T16:59:23.265Z,696.00
2019-03-13T17:00:23.145Z,648.00
2019-03-13T17:02:15.850Z,792.00
2019-03-13T17:03:15.714Z,728.00
2019-03-13T17:05:08.381Z,660.00
2019-03-13T17:06:08.270Z,604.00
2019-03-13T17:08:00.967Z,604.00
2019-03-13T17:09:00.813Z,520.00
2019-03-13T17:10:53.501Z,460.00
2019-03-13T17:11:53.366Z,360.00
2019-03-13T17:13:46.030Z,244.00
2019-03-13T17:14:45.917Z,212.00
2019-03-13T17:16:38.604Z,200.00
2019-03-13T17:17:38.467Z,200.00
2019-03-13T17:19:31.137Z,176.00
2019-03-13T17:20:31.022Z,160.00
2019-03-13T17:22:23.700Z,144.00
2019-03-13T17:23:23.572Z,140.00
2019-03-13T17:25:16.234Z,160.00
2019-03-13T17:26:16.121Z,164.00
2019-03-13T17:28:08.803Z,156.00
2019-03-13T17:29:08.768Z,144.00
2019-03-13T17:31:01.353Z,132.00
2019-03-13T17:32:01.225Z,116.00
2019-03-13T17:33:53.882Z,92.00
2019-03-13T17:34:53.790Z,64.00
2019-03-13T17:36:46.443Z,36.00
2019-03-13T17:37:46.312Z,32.00
2019-03-13T17:39:38.983Z,28.00
2019-03-13T17:40:38.862Z,24.00
2019-03-13T17:42:31.559Z,28.00
2019-03-13T17:43:38.964Z,28.00
2019-03-13T17:45:24.091Z,28.00
2019-03-13T17:46:23.965Z,28.00
2019-03-13T17:48:16.649Z,24.00
2019-03-13T17:49:16.509Z,24.00
2019-03-13T17:51:09.180Z,24.00
2019-03-13T17:52:09.065Z,24.00
2019-03-13T17:54:01.741Z,20.00
2019-03-13T17:55:01.610Z,24.00
2019-03-13T17:56:54.272Z,24.00
2019-03-13T17:57:54.163Z,24.00
2019-03-13T17:59:46.858Z,20.00
2019-03-13T18:00:46.721Z,20.00
2019-03-13T18:02:39.384Z,20.00
2019-03-13T18:03:39.284Z,20.00
2019-03-13T18:05:31.953Z,20.00
2019-03-13T18:06:31.881Z,20.00
2019-03-13T18:08:24.483Z,20.00
2019-03-13T18:09:24.373Z,20.00
2019-03-13T18:11:17.053Z,20.00
2019-03-13T18:12:16.917Z,20.00
2019-03-13T18:14:09.576Z,20.00
2019-03-13T18:15:09.469Z,24.00
2019-03-13T18:17:02.144Z,20.00
2019-03-13T18:18:02.014Z,20.00
2019-03-13T18:19:54.671Z,20.00
2019-03-13T18:20:54.595Z,20.00
2019-03-13T18:22:47.289Z,20.00
2019-03-13T18:23:47.112Z,24.00
2019-03-13T18:25:39.793Z,24.00
2019-03-13T18:26:39.675Z,24.00
2019-03-13T18:28:32.384Z,20.00
2019-03-13T18:29:32.234Z,20.00
2019-03-13T18:31:24.904Z,20.00
2019-03-13T18:32:24.789Z,20.00
2019-03-13T18:34:17.513Z,20.00
2019-03-13T18:35:17.386Z,20.00
2019-03-13T18:37:10.048Z,20.00
2019-03-13T18:38:09.939Z,20.00
2019-03-13T18:40:02.611Z,24.00
2019-03-13T18:41:02.484Z,20.00
2019-03-13T18:42:55.146Z,20.00
2019-03-13T18:43:55.029Z,20.00
2019-03-13T18:45:47.720Z,24.00
2019-03-13T18:46:47.583Z,20.00
2019-03-13T18:48:40.249Z,20.00
2019-03-13T18:49:40.138Z,24.00
2019-03-13T18:51:32.824Z,20.00
2019-03-13T18:52:32.698Z,20.00
2019-03-13T18:54:25.380Z,20.00
2019-03-13T18:55:25.248Z,20.00
2019-03-13T18:57:17.929Z,20.00
2019-03-13T18:58:17.795Z,24.00
2019-03-13T19:00:10.465Z,24.00
2019-03-13T19:01:10.346Z,20.00
2019-03-13T19:03:03.047Z,20.00
2019-03-13T19:04:02.911Z,20.00
2019-03-13T19:05:55.587Z,24.00
2019-03-13T19:06:55.464Z,20.00
2019-03-13T19:08:48.139Z,20.00
2019-03-13T19:09:48.012Z,20.00
2019-03-13T19:11:40.666Z,20.00
2019-03-13T19:12:40.560Z,20.00
2019-03-13T19:14:33.234Z,20.00
2019-03-13T19:15:33.186Z,20.00
2019-03-13T19:17:25.771Z,20.00
2019-03-13T19:18:25.657Z,20.00
2019-03-13T19:20:18.358Z,20.00
2019-03-13T19:21:18.210Z,20.00
2019-03-13T19:23:13.981Z,24.00
2019-03-13T19:24:10.751Z,24.00
2019-03-13T19:26:03.441Z,24.00
2019-03-13T19:27:03.300Z,20.00
2019-03-13T19:28:55.959Z,24.00
2019-03-13T19:29:55.849Z,24.00
2019-03-13T19:31:49.061Z,24.00
2019-03-13T19:32:48.926Z,24.00
2019-03-13T19:34:41.570Z,20.00
2019-03-13T19:35:41.451Z,20.00
2019-03-13T19:37:34.131Z,20.00
2019-03-13T19:38:33.997Z,20.00
2019-03-13T19:40:26.660Z,20.00
2019-03-13T19:41:26.550Z,20.00
2019-03-13T19:43:19.226Z,20.00
2019-03-13T19:44:19.092Z,20.00
2019-03-13T19:46:11.794Z,20.00
2019-03-13T19:47:11.653Z,20.00
2019-03-13T19:49:04.333Z,20.00
2019-03-13T19:50:04.201Z,20.00
2019-03-13T19:51:56.884Z,20.00
2019-03-13T19:52:56.770Z,24.00
2019-03-13T19:54:49.464Z,20.00
2019-03-13T19:55:49.323Z,20.00
2019-03-13T19:57:41.995Z,20.00
2019-03-13T19:58:41.885Z,20.00
2019-03-13T20:00:34.552Z,20.00
2019-03-13T20:01:34.427Z,20.00
2019-03-13T20:03:27.088Z,20.00
2019-03-13T20:04:26.982Z,20.00
2019-03-13T20:06:19.654Z,20.00
2019-03-13T20:07:19.525Z,20.00
2019-03-13T20:09:12.189Z,20.00
2019-03-13T20:10:12.077Z,20.00
2019-03-13T20:12:04.750Z,20.00
2019-03-13T20:13:04.623Z,20.00
2019-03-13T20:14:57.321Z,24.00
2019-03-13T20:15:57.164Z,24.00
2019-03-13T20:17:49.831Z,20.00
2019-03-13T20:18:49.985Z,24.00
2019-03-13T20:20:42.396Z,20.00
2019-03-13T20:21:42.266Z,20.00
2019-03-13T20:23:34.921Z,20.00
2019-03-13T20:24:34.831Z,20.00
2019-03-13T20:26:28.014Z,20.00
2019-03-13T20:27:27.896Z,20.00
2019-03-13T20:29:20.551Z,20.00
2019-03-13T20:30:20.441Z,20.00
2019-03-13T20:32:13.121Z,20.00
2019-03-13T20:33:12.983Z,24.00
2019-03-13T20:35:06.162Z,24.00
2019-03-13T20:36:06.044Z,20.00
2019-03-13T20:37:58.752Z,20.00
2019-03-13T20:38:58.623Z,20.00
2019-03-13T20:40:51.304Z,20.00
2019-03-13T20:41:54.150Z,20.00
2019-03-13T20:43:45.835Z,24.00
2019-03-13T20:44:43.727Z,20.00
2019-03-13T20:46:36.400Z,20.00
2019-03-13T20:47:36.273Z,20.00
2019-03-13T20:49:28.936Z,20.00
2019-03-13T20:50:36.547Z,20.00
2019-03-13T20:52:21.506Z,20.00
2019-03-13T20:53:21.380Z,20.00
2019-03-13T20:55:14.030Z,20.00
2019-03-13T20:56:13.919Z,20.00
2019-03-13T20:58:06.600Z,20.00
2019-03-13T20:59:06.463Z,20.00
2019-03-13T21:00:59.127Z,20.00
2019-03-13T21:02:00.351Z,20.00
2019-03-13T21:03:51.697Z,20.00
2019-03-13T21:04:51.560Z,20.00
2019-03-13T21:06:44.226Z,20.00
2019-03-13T21:07:44.109Z,20.00
2019-03-13T21:09:36.786Z,20.00
2019-03-13T21:10:36.654Z,20.00
2019-03-13T21:12:29.314Z,20.00
2019-03-13T21:13:29.196Z,20.00
2019-03-13T21:15:21.875Z,20.00
2019-03-13T21:16:21.739Z,20.00
2019-03-13T21:18:14.403Z,20.00
2019-03-13T21:19:14.290Z,20.00
2019-03-13T21:21:06.961Z,20.00
2019-03-13T21:22:06.841Z,20.00
2019-03-13T21:23:59.492Z,0.00
2019-03-13T21:24:59.379Z,0.00
2019-03-13T21:26:52.558Z,0.00
2019-03-13T21:27:52.436Z,0.00
2019-03-13T21:29:45.102Z,0.00
2019-03-13T21:30:44.982Z,0.00
2019-03-13T21:32:37.669Z,0.00
2019-03-13T21:33:37.527Z,0.00
2019-03-13T21:35:30.205Z,0.00
2019-03-13T21:36:30.095Z,0.00
2019-03-13T21:38:22.774Z,0.00
2019-03-13T21:39:22.646Z,0.00
2019-03-13T21:41:15.310Z,0.00
2019-03-13T21:42:15.204Z,0.00
2019-03-13T21:44:07.886Z,0.00
2019-03-13T21:45:07.756Z,0.00
2019-03-13T21:47:00.420Z,0.00
2019-03-13T21:48:00.307Z,0.00
2019-03-13T21:49:52.985Z,0.00
2019-03-13T21:50:52.860Z,0.00
2019-03-13T21:52:45.639Z,0.00
2019-03-13T21:53:45.528Z,0.00
2019-03-13T21:55:38.255Z,0.00
2019-03-13T21:56:38.111Z,0.00
2019-03-13T21:58:30.787Z,0.00
2019-03-13T21:59:30.664Z,0.00
2019-03-13T22:01:23.330Z,0.00
2019-03-13T22:02:32.290Z,0.00
2019-03-13T22:04:24.115Z,0.00
2019-03-13T22:05:25.068Z,0.00
2019-03-13T22:07:08.436Z,0.00
2019-03-13T22:08:08.333Z,0.00
2019-03-13T22:10:01.013Z,0.00
2019-03-13T22:11:00.891Z,0.00
2019-03-13T22:12:53.554Z,0.00
2019-03-13T22:13:53.444Z,0.00
2019-03-13T22:15:46.087Z,0.00
2019-03-13T22:16:45.979Z,0.00
2019-03-13T22:18:38.670Z,0.00
2019-03-13T22:19:38.531Z,0.00
2019-03-13T22:21:31.213Z,0.00
2019-03-13T22:22:31.080Z,0.00
2019-03-13T22:24:23.761Z,0.00
2019-03-13T22:25:23.634Z,0.00
2019-03-13T22:27:16.355Z,0.00
2019-03-13T22:28:16.173Z,0.00
2019-03-13T22:30:08.866Z,0.00
2019-03-13T22:31:08.720Z,0.00
2019-03-13T22:33:01.380Z,0.00
2019-03-13T22:34:01.268Z,0.00
2019-03-13T22:35:53.958Z,0.00
2019-03-13T22:36:53.819Z,0.00
2019-03-13T22:38:46.514Z,0.00
2019-03-13T22:39:46.391Z,0.00
2019-03-13T22:41:39.086Z,0.00
2019-03-13T22:42:38.957Z,0.00
2019-03-13T22:44:31.634Z,0.00
2019-03-13T22:45:31.501Z,0.00
2019-03-13T22:47:24.179Z,0.00
2019-03-13T22:48:24.042Z,0.00
2019-03-13T22:50:16.706Z,0.00
2019-03-13T22:51:16.591Z,0.00
2019-03-13T22:53:09.275Z,0.00
2019-03-13T22:54:09.136Z,0.00
2019-03-13T22:56:01.804Z,0.00